Latest Coastal Weather Observations for Fawkner Beacon

IDV60701

Issued at 11:12 pm EST Saturday 25 June 2022 (issued every 10 minutes, with the page automatically refreshed every 10 minutes)

About coastal observations | Map of coastal stations | Coastal observations for VIC | Marine services | Other Formats
Station Details ID: 086376 Name: FAWKNER BEACON Lat: -37.95 Lon: 144.93 Height: 17.0 m
Data from the previous 72 hours. | See also: Recent months at Fawkner Beacon
Date/Time
EST
Wind Sea
Height
m
Swell Vis
km
Cloud Weather Temp
°C
Press
MSL
hPa
Rain since
9am
mm
Dir  Spd
kts
Gust
kts
Height
m
Period
s
Dir
25/11:00pm N 18 21 - - - - - - - - - -
25/10:30pm N 17 19 - - - - - - - - - -
25/10:00pm N 19 22 - - - - - - - - - -
25/09:30pm N 17 21 - - - - - - - - - -
25/09:00pm N 18 21 - - - - - - - - - -
25/08:30pm N 18 22 - - - - - - - - - -
25/08:00pm N 18 21 - - - - - - - - - -
25/07:30pm N 17 22 - - - - - - - - - -
25/07:00pm N 17 21 - - - - - - - - - -
25/06:30pm N 18 22 - - - - - - - - - -
25/06:00pm N 19 25 - - - - - - - - - -
25/05:30pm N 20 24 - - - - - - - - - -
25/05:00pm NNW 19 23 - - - - - - - - - -
25/04:30pm N 20 24 - - - - - - - - - -
25/04:00pm NNW 15 17 - - - - - - - - - -
25/03:30pm NW 15 19 - - - - - - - - - -
25/03:00pm NW 17 19 - - - - - - - - - -
25/02:30pm NW 17 22 - - - - - - - - - -
25/02:00pm NW 21 25 - - - - - - - - - -
25/01:30pm NW 22 27 - - - - - - - - - -
25/01:00pm NW 20 24 - - - - - - - - - -
25/12:30pm NW 19 24 - - - - - - - - - -
25/12:00pm NW 18 24 - - - - - - - - - -
25/11:30am NNW 18 24 - - - - - - - - - -
25/11:00am NNW 16 21 - - - - - - - - - -
25/10:30am NNW 16 18 - - - - - - - - - -
25/10:00am N 15 18 - - - - - - - - - -
25/09:30am N 14 16 - - - - - - - - - -
25/09:00am N 14 17 - - - - - - - - - -
25/08:30am N 16 18 - - - - - - - - - -
25/08:00am N 16 19 - - - - - - - - - -
25/07:30am N 15 18 - - - - - - - - - -
25/07:00am N 17 21 - - - - - - - - - -
25/06:30am N 17 21 - - - - - - - - - -
25/06:00am N 19 22 - - - - - - - - - -
25/05:30am N 18 22 - - - - - - - - - -
25/05:00am N 16 19 - - - - - - - - - -
25/04:30am NNW 15 17 - - - - - - - - - -
25/04:00am NNW 15 19 - - - - - - - - - -
25/03:30am NNW 14 16 - - - - - - - - - -
25/03:00am NNW 13 16 - - - - - - - - - -
25/02:30am NNW 11 13 - - - - - - - - - -
25/02:00am N 11 13 - - - - - - - - - -
25/01:30am N 10 12 - - - - - - - - - -
25/01:00am N 11 13 - - - - - - - - - -
25/12:30am NNW 8 11 - - - - - - - - - -
25/12:00am N 8 11 - - - - - - - - - -
 
Date/Time
EST
Wind Sea
Height
m
Swell Vis
km
Cloud Weather Temp
°C
Press
MSL
hPa
Rain since
9am
mm
Dir  Spd
kts
Gust
kts
Height
m
Period
s
Dir
24/11:30pm N 11 14 - - - - - - - - - -
24/11:00pm N 9 12 - - - - - - - - - -
24/10:30pm N 10 12 - - - - - - - - - -
24/10:00pm NW 7 9 - - - - - - - - - -
24/09:30pm WNW 10 12 - - - - - - - - - -
24/09:00pm NW 10 13 - - - - - - - - - -
24/08:30pm NW 7 8 - - - - - - - - - -
24/08:00pm WNW 8 11 - - - - - - - - - -
24/07:30pm WSW 13 15 - - - - - - - - - -
24/07:00pm WSW 14 17 - - - - - - - - - -
24/06:30pm WSW 13 14 - - - - - - - - - -
24/06:00pm WSW 11 13 - - - - - - - - - -
24/05:30pm WSW 9 12 - - - - - - - - - -
24/05:00pm W 5 7 - - - - - - - - - -
24/04:30pm NW 4 5 - - - - - - - - - -
24/04:00pm WNW 5 6 - - - - - - - - - -
24/03:30pm W 6 8 - - - - - - - - - -
24/03:00pm SW 12 16 - - - - - - - - - -
24/02:30pm SW 20 24 - - - - - - - - - -
24/02:19pm WSW 14 26 - - - - - - - - - -
24/02:00pm WSW 9 11 - - - - - - - - - -
24/01:30pm WSW 8 11 - - - - - - - - - -
24/01:00pm W 13 15 - - - - - - - - - -
24/12:30pm W 9 12 - - - - - - - - - -
24/12:00pm WNW 12 14 - - - - - - - - - -
24/11:30am NW 12 14 - - - - - - - - - -
24/11:00am WNW 10 13 - - - - - - - - - -
24/10:30am WNW 14 17 - - - - - - - - - -
24/10:00am WNW 15 18 - - - - - - - - - -
24/09:30am NW 15 17 - - - - - - - - - -
24/09:00am NW 15 17 - - - - - - - - - -
24/08:30am WNW 16 19 - - - - - - - - - -
24/08:00am NW 14 16 - - - - - - - - - -
24/07:30am NNW 12 14 - - - - - - - - - -
24/07:00am N 14 16 - - - - - - - - - -
24/06:30am N 15 18 - - - - - - - - - -
24/06:00am N 17 22 - - - - - - - - - -
24/05:30am N 17 21 - - - - - - - - - -
24/05:00am N 21 25 - - - - - - - - - -
24/04:30am N 21 24 - - - - - - - - - -
24/04:00am N 22 28 - - - - - - - - - -
24/03:30am N 24 31 - - - - - - - - - -
24/03:00am N 23 27 - - - - - - - - - -
24/02:30am N 25 31 - - - - - - - - - -
24/02:00am N 26 32 - - - - - - - - - -
24/01:30am N 30 37 - - - - - - - - - -
24/01:00am N 27 33 - - - - - - - - - -
24/12:30am N 27 33 - - - - - - - - - -
24/12:00am N 31 37 - - - - - - - - - -
 
Date/Time
EST
Wind Sea
Height
m
Swell Vis
km
Cloud Weather Temp
°C
Press
MSL
hPa
Rain since
9am
mm
Dir  Spd
kts
Gust
kts
Height
m
Period
s
Dir
23/11:30pm N 31 37 - - - - - - - - - -
23/11:00pm N 31 38 - - - - - - - - - -
23/10:30pm N 29 34 - - - - - - - - - -
23/10:00pm N 25 29 - - - - - - - - - -
23/09:30pm N 24 31 - - - - - - - - - -
23/09:00pm N 24 27 - - - - - - - - - -
23/08:30pm N 24 31 - - - - - - - - - -
23/08:00pm N 21 23 - - - - - - - - - -
23/07:30pm N 21 24 - - - - - - - - - -
23/07:00pm N 21 24 - - - - - - - - - -
23/06:30pm N 20 24 - - - - - - - - - -
23/06:00pm N 21 24 - - - - - - - - - -
23/05:30pm N 23 27 - - - - - - - - - -
23/05:00pm N 22 26 - - - - - - - - - -
23/04:30pm N 21 23 - - - - - - - - - -
23/04:00pm N 19 22 - - - - - - - - - -
23/03:30pm N 18 23 - - - - - - - - - -
23/03:00pm N 21 26 - - - - - - - - - -
23/02:30pm N 22 26 - - - - - - - - - -
23/02:00pm N 21 24 - - - - - - - - - -
23/01:30pm N 17 21 - - - - - - - - - -
23/01:00pm N 21 24 - - - - - - - - - -
23/12:30pm NNW 22 26 - - - - - - - - - -
23/12:00pm N 16 19 - - - - - - - - - -
23/11:30am N 15 18 - - - - - - - - - -
23/11:00am NNW 17 19 - - - - - - - - - -
23/10:30am N 14 15 - - - - - - - - - -
23/10:00am N 15 17 - - - - - - - - - -
23/09:30am N 16 19 - - - - - - - - - -
23/09:00am N 14 16 - - - - - - - - - -
23/08:30am N 16 18 - - - - - - - - - -
23/08:00am NNW 15 17 - - - - - - - - - -
23/07:30am NNW 17 21 - - - - - - - - - -
23/07:00am N 15 17 - - - - - - - - - -
23/06:30am N 15 17 - - - - - - - - - -
23/06:00am N 16 17 - - - - - - - - - -
23/05:30am N 16 18 - - - - - - - - - -
23/05:00am N 17 19 - - - - - - - - - -
23/04:30am N 16 19 - - - - - - - - - -
23/04:00am N 16 18 - - - - - - - - - -
23/03:30am N 14 16 - - - - - - - - - -
23/03:00am N 14 16 - - - - - - - - - -
23/02:30am N 13 15 - - - - - - - - - -
23/02:00am N 13 15 - - - - - - - - - -
23/01:30am N 14 17 - - - - - - - - - -
23/01:00am N 16 18 - - - - - - - - - -
23/12:30am N 17 19 - - - - - - - - - -
23/12:00am N 15 17 - - - - - - - - - -
 
Date/Time
EST
Wind Sea
Height
m
Swell Vis
km
Cloud Weather Temp
°C
Press
MSL
hPa
Rain since
9am
mm
Dir  Spd
kts
Gust
kts
Height
m
Period
s
Dir
22/11:30pm N 15 18 - - - - - - - - - -

Other formats

Comma delimited format used in spreadsheet applications
http://www.bom.gov.au/fwo/IDV60701/IDV60701.95872.axf

JavaScript Object Notation format (JSON) in row-major order
http://www.bom.gov.au/fwo/IDV60701/IDV60701.95872.json

Data quality

Most of these data are generated automatically and are frequently updated. Quality checks on data are not normally performed. It is possible for incorrect values to appear. Refer to information at About Latest Weather Observations and please check the disclaimer before using these data.